Lake Lynn, PA (15451)

8:35 PM EDT on October 01, 2014 (GMT -0400)
Fairchance/Cheat Lake | Change Station
CLOSE
Current Station
Personal Weather Station
Location: Morgantown, WV
Elevation: 1080 ft
Nearby Weather Stations

Elev 1080 ft 39.72 °N, 79.81 °W | Updated 14 seconds ago

Clear
Clear
54.3 °F
Feels Like 54.3 °F
N
0.0
Wind Variable Wind from SW
Gusts 0.0 mph

Today
High -- | Low -- °F
--% Chance of Precip.
Yesterday
High -- | Low -- °F
Precip. -- in
7:15 AM 7:01 PM
First Quarter, 52% visible
Pressure 29.93 in
Visibility 10.0 miles
Clouds Few 5500 ft
Scattered Clouds 8000 ft
Mostly Cloudy 11000 ft
Dew Point 53 °F
Humidity 96%
Rainfall 0.01 in
Snow Depth Not available.
UV 0 out of 12
Pollen 2.00 out of 12
Air Quality Not available.
Flu Activity Not available.
METAR KMGW 302353Z 00000KT 10SM FEW055 SCT080 BKN110 16/13 A2993 RMK AO2 SLP133 BC VLY FG 60068 T01610133 10267 20156 55000

More Conditions Fewer Conditions

Pressure 29.93 in
Visibility 10.0 miles
Clouds Few 5500 ft
Scattered Clouds 8000 ft
Mostly Cloudy 11000 ft
Dew Point 53 °F
Humidity 96%
Rainfall 0.01 in
Snow Depth Not available.
UV 0 out of 12
Pollen 2.00 out of 12
Air Quality Not available.
Flu Activity Not available.
METAR KMGW 302353Z 00000KT 10SM FEW055 SCT080 BKN110 16/13 A2993 RMK AO2 SLP133 BC VLY FG 60068 T01610133 10267 20156 55000

More Conditions Fewer Conditions

10-Day Weather Forecast

Almanac

Astronomy

Oct. 01, 2014 Rise Set
Actual Time 7:15 AM EDT 7:01 PM EDT
Civil Twilight 6:48 AM EDT 7:28 PM EDT
Nautical Twilight 6:17 AM EDT 7:59 PM EDT
Astronomical Twilight 5:45 AM EDT 8:31 PM EDT
Moon 2:14 PM EDT (10/1) No Moon Set
Length of Visible Light 12h 40m
Length of Day
11h 46m
Tomorrow will be 2m 34s shorter.
First Quarter, 52% of the Moon is Illuminated
Today
First Quarter
Oct 8
Full
Oct 15
Last Quarter
Oct 23
New
Oct 30
First Quarter

Today's Extremes

State Highs State Lows

Community

WunderPhotos

Upload Photos

1,758,101 photos uploaded!

WunderBlogs® & News

Nearby

Snow Depth

Station Depth Elevation
No new snow has been reported.

Earthquake Activity

City Distance Mag. Time & Date
No recent earthquake activity has been reported nearby.
Minimum magnitude displayed is 2.5.

Coastal Water Temperatures

Place Temperature
No Stations Reporting

Nearby Weather Stations